createdAt,value
2019-05-07T00:03:39.087Z,1.83
2019-05-07T00:08:44.917Z,2.40
2019-05-07T00:13:47.387Z,1.90
2019-05-07T00:18:52.414Z,1.20
2019-05-07T00:23:55.458Z,1.23
2019-05-07T00:28:58.667Z,1.57
2019-05-07T00:34:02.881Z,1.90
2019-05-07T00:39:16.647Z,1.73
2019-05-07T00:44:21.970Z,1.23
2019-05-07T00:49:26.904Z,2.23
2019-05-07T00:54:32.495Z,1.70
2019-05-07T00:59:35.040Z,2.10
2019-05-07T01:04:37.901Z,2.13
2019-05-07T01:09:43.051Z,1.60
2019-05-07T01:14:46.332Z,2.50
2019-05-07T01:19:49.210Z,1.70
2019-05-07T01:24:53.439Z,1.50
2019-05-07T01:29:56.651Z,1.30
2019-05-07T01:35:03.403Z,1.57
2019-05-07T01:40:06.382Z,1.70
2019-05-07T01:45:10.413Z,2.07
2019-05-07T01:50:15.891Z,1.53
2019-05-07T01:55:19.047Z,2.43
2019-05-07T02:00:22.602Z,1.77
2019-05-07T02:05:44.310Z,1.80
2019-05-07T02:10:56.218Z,2.00
2019-05-07T02:16:01.874Z,2.13
2019-05-07T02:21:03.972Z,1.43
2019-05-07T02:26:07.467Z,3.40
2019-05-07T02:31:09.971Z,2.33
2019-05-07T02:36:14.275Z,2.30
2019-05-07T02:41:23.310Z,2.83
2019-05-07T02:46:57.605Z,2.07
2019-05-07T02:52:06.683Z,2.50
2019-05-07T02:57:09.627Z,2.47
2019-05-07T03:02:14.460Z,2.00
2019-05-07T03:07:17.995Z,2.13
2019-05-07T03:12:23.554Z,2.90
2019-05-07T03:17:25.080Z,1.80
2019-05-07T03:22:28.557Z,2.90
2019-05-07T03:27:34.084Z,2.10
2019-05-07T03:32:46.709Z,3.10
2019-05-07T03:37:46.351Z,3.20
2019-05-07T03:42:49.904Z,1.90
2019-05-07T03:48:13.847Z,1.90
2019-05-07T03:53:17.214Z,2.60
2019-05-07T03:58:23.540Z,2.30
2019-05-07T04:03:26.806Z,2.77
2019-05-07T04:08:33.076Z,2.60
2019-05-07T04:13:35.172Z,1.90
2019-05-07T04:18:38.280Z,2.30
2019-05-07T04:23:43.645Z,1.90
2019-05-07T04:28:54.604Z,2.30
2019-05-07T04:34:03.673Z,2.20
2019-05-07T04:39:08.309Z,2.40
2019-05-07T04:44:13.956Z,2.33
2019-05-07T04:49:16.602Z,2.47
2019-05-07T04:54:19.517Z,1.90
2019-05-07T04:59:23.788Z,2.37
2019-05-07T05:04:33.981Z,2.40
2019-05-07T05:09:33.334Z,2.30
2019-05-07T05:14:36.489Z,2.33
2019-05-07T05:19:40.097Z,2.60
2019-05-07T05:24:45.304Z,2.40
2019-05-07T05:29:48.387Z,2.73
2019-05-07T05:34:52.088Z,2.10
2019-05-07T05:40:05.651Z,4.23
2019-05-07T05:45:02.083Z,2.23
2019-05-07T05:50:08.017Z,2.60
2019-05-07T05:55:14.265Z,2.10
2019-05-07T06:00:53.033Z,2.87
2019-05-07T06:06:18.881Z,2.50
2019-05-07T06:11:48.326Z,2.57
2019-05-07T06:17:12.995Z,2.50
2019-05-07T06:22:33.958Z,2.53
2019-05-07T06:27:37.254Z,2.30
2019-05-07T06:32:42.749Z,2.03
2019-05-07T06:37:46.587Z,2.17
2019-05-07T06:42:56.952Z,2.17
2019-05-07T06:48:00.122Z,1.97
2019-05-07T06:53:03.177Z,1.67
2019-05-07T06:58:07.224Z,1.97
2019-05-07T07:03:30.013Z,1.70
2019-05-07T07:08:41.949Z,2.20
2019-05-07T07:13:45.253Z,2.60
2019-05-07T07:18:52.503Z,2.47
2019-05-07T07:23:53.314Z,2.10
2019-05-07T07:28:55.906Z,2.97
2019-05-07T07:34:02.238Z,1.87
2019-05-07T07:39:07.527Z,2.63
2019-05-07T07:44:10.512Z,2.17
2019-05-07T07:49:15.253Z,2.03
2019-05-07T07:54:18.610Z,1.80
2019-05-07T07:59:32.847Z,1.50
2019-05-07T08:04:35.984Z,1.67
2019-05-07T08:09:39.487Z,2.43
2019-05-07T08:14:42.860Z,2.30
2019-05-07T08:19:48.182Z,2.43
2019-05-07T08:24:52.001Z,2.53
2019-05-07T08:29:55.062Z,2.23
2019-05-07T08:35:03.537Z,1.57
2019-05-07T08:40:07.460Z,1.90
2019-05-07T08:45:29.257Z,1.27
2019-05-07T08:50:32.681Z,1.60
2019-05-07T08:55:36.449Z,1.40
2019-05-07T09:00:41.782Z,1.30
2019-05-07T09:05:45.627Z,1.00
2019-05-07T09:10:48.948Z,1.37
2019-05-07T09:15:52.922Z,1.23
2019-05-07T09:20:56.398Z,1.10
2019-05-07T09:25:59.600Z,1.10
2019-05-07T09:31:12.370Z,1.67
2019-05-07T09:36:22.748Z,1.57
2019-05-07T09:41:28.643Z,2.20
2019-05-07T09:46:32.666Z,1.40
2019-05-07T09:51:35.412Z,1.33
2019-05-07T09:56:38.623Z,1.10
2019-05-07T10:01:41.964Z,1.60
2019-05-07T10:06:45.224Z,2.03
2019-05-07T10:11:54.598Z,1.77
2019-05-07T10:17:08.497Z,1.60
2019-05-07T10:22:12.670Z,1.47
2019-05-07T10:27:16.295Z,1.00
2019-05-07T10:32:19.279Z,1.90
2019-05-07T10:37:22.809Z,1.63
2019-05-07T10:42:25.372Z,2.13
2019-05-07T10:47:46.449Z,1.37
2019-05-07T10:52:49.632Z,2.00
2019-05-07T10:57:53.663Z,1.60
2019-05-07T11:02:57.000Z,1.50
2019-05-07T11:08:02.270Z,1.70
2019-05-07T11:13:05.636Z,1.73
2019-05-07T11:18:21.720Z,1.60
2019-05-07T11:23:25.167Z,1.33
2019-05-07T11:28:28.108Z,1.30
2019-05-07T11:33:32.631Z,1.10
2019-05-07T11:38:36.198Z,1.63
2019-05-07T11:43:55.549Z,0.87
2019-05-07T11:49:07.113Z,1.37
2019-05-07T11:54:12.606Z,1.17
2019-05-07T11:59:16.474Z,1.90
2019-05-07T12:04:19.666Z,1.30
2019-05-07T12:09:23.259Z,1.20
2019-05-07T12:14:31.543Z,1.13
2019-05-07T12:19:33.082Z,1.30
2019-05-07T12:24:36.138Z,1.57
2019-05-07T12:29:39.448Z,1.50
2019-05-07T12:34:46.666Z,1.77
2019-05-07T12:39:50.007Z,1.27
2019-05-07T12:44:53.160Z,1.07
2019-05-07T12:49:55.710Z,1.53
2019-05-07T12:55:05.758Z,1.93
2019-05-07T13:00:27.156Z,1.17
2019-05-07T13:05:30.431Z,0.87
2019-05-07T13:10:34.871Z,0.80
2019-05-07T13:15:37.923Z,1.10
2019-05-07T13:20:41.255Z,0.87
2019-05-07T13:25:44.433Z,1.10
2019-05-07T13:30:47.407Z,1.00
2019-05-07T13:35:52.207Z,1.00
2019-05-07T13:41:24.129Z,1.30
2019-05-07T13:46:28.305Z,1.20
2019-05-07T13:51:33.870Z,1.87
2019-05-07T13:56:36.787Z,1.27
2019-05-07T14:01:57.034Z,1.10
2019-05-07T14:07:01.929Z,1.30
2019-05-07T14:12:05.423Z,1.13
2019-05-07T14:17:09.455Z,1.20
2019-05-07T14:22:18.653Z,1.50
2019-05-07T14:27:17.906Z,0.97
2019-05-07T14:32:41.926Z,1.00
2019-05-07T14:37:48.278Z,1.60
2019-05-07T14:42:58.405Z,1.37
2019-05-07T14:48:02.943Z,1.90
2019-05-07T14:53:06.297Z,1.87
2019-05-07T14:58:09.629Z,1.40
2019-05-07T15:03:12.956Z,1.50
2019-05-07T15:08:16.198Z,1.37
2019-05-07T15:13:18.839Z,1.33
2019-05-07T15:18:32.110Z,1.00
2019-05-07T15:23:36.094Z,1.13
2019-05-07T15:28:41.763Z,1.33
2019-05-07T15:33:46.291Z,1.30
2019-05-07T15:38:49.521Z,1.23
2019-05-07T15:43:52.954Z,0.80
2019-05-07T15:48:56.461Z,1.30
2019-05-07T15:54:00.503Z,1.00
2019-05-07T15:59:05.385Z,1.30
2019-05-07T16:04:19.987Z,1.47
2019-05-07T16:09:15.776Z,1.30
2019-05-07T16:14:26.788Z,1.20
2019-05-07T16:19:31.787Z,1.30
2019-05-07T16:24:34.905Z,1.10
2019-05-07T16:29:38.291Z,1.67
2019-05-07T16:34:42.955Z,1.00
2019-05-07T16:39:46.366Z,1.03
2019-05-07T16:44:49.575Z,1.23
2019-05-07T16:49:52.482Z,1.00
2019-05-07T16:54:55.912Z,2.10
2019-05-07T16:59:58.884Z,1.30
2019-05-07T17:05:05.838Z,1.03
2019-05-07T17:10:11.561Z,1.10
2019-05-07T17:15:15.244Z,1.92
2019-05-07T17:20:18.690Z,1.17
2019-05-07T17:25:37.495Z,1.00
2019-05-07T17:30:42.103Z,1.03
2019-05-07T17:35:46.239Z,1.10
2019-05-07T17:40:51.971Z,1.40
2019-05-07T17:45:55.257Z,1.30
2019-05-07T17:51:23.858Z,1.20
2019-05-07T17:56:27.201Z,1.30
2019-05-07T18:02:02.011Z,1.00
2019-05-07T18:07:05.242Z,1.23
2019-05-07T18:12:08.544Z,1.40
2019-05-07T18:17:33.749Z,1.20
2019-05-07T18:22:37.466Z,1.90
2019-05-07T18:27:42.078Z,1.40
2019-05-07T18:32:52.065Z,1.57
2019-05-07T18:37:55.826Z,1.93
2019-05-07T18:42:59.047Z,1.50
2019-05-07T18:48:02.461Z,1.20
2019-05-07T18:53:06.464Z,1.00
2019-05-07T18:58:10.127Z,1.40
2019-05-07T19:03:15.399Z,1.53
2019-05-07T19:08:19.078Z,1.50
2019-05-07T19:13:22.811Z,1.70
2019-05-07T19:18:26.604Z,2.03
2019-05-07T19:23:33.046Z,1.43
2019-05-07T19:28:37.275Z,1.80
2019-05-07T19:33:41.929Z,2.07
2019-05-07T19:38:46.807Z,1.93
2019-05-07T19:43:52.630Z,2.00
2019-05-07T19:48:55.284Z,2.53
2019-05-07T19:53:58.692Z,3.50
2019-05-07T19:59:02.241Z,1.93
2019-05-07T20:04:05.683Z,2.27
2019-05-07T20:09:13.059Z,2.73
2019-05-07T20:14:16.705Z,3.30
2019-05-07T20:19:22.855Z,3.13
2019-05-07T20:24:26.444Z,3.80
2019-05-07T20:29:29.510Z,3.80
2019-05-07T20:34:33.480Z,4.13
2019-05-07T20:39:36.830Z,4.90
2019-05-07T20:44:39.949Z,4.60
2019-05-07T20:49:43.234Z,5.23
2019-05-07T20:54:58.420Z,5.60
2019-05-07T21:00:02.740Z,5.90
2019-05-07T21:05:06.565Z,6.23
2019-05-07T21:10:09.472Z,5.90
2019-05-07T21:15:13.162Z,6.10
2019-05-07T21:20:16.813Z,5.93
2019-05-07T21:25:19.326Z,5.33
2019-05-07T21:30:23.449Z,4.90
2019-05-07T21:35:25.982Z,4.27
2019-05-07T21:40:29.427Z,4.30
2019-05-07T21:45:32.937Z,3.27
2019-05-07T21:50:36.779Z,4.10
2019-05-07T21:56:02.529Z,3.57
2019-05-07T22:01:18.032Z,2.83
2019-05-07T22:06:22.646Z,3.40
2019-05-07T22:11:26.518Z,3.20
2019-05-07T22:16:29.697Z,3.20
2019-05-07T22:21:34.262Z,2.87
2019-05-07T22:26:37.451Z,1.90
2019-05-07T22:31:46.826Z,2.20
2019-05-07T22:36:49.707Z,2.40
2019-05-07T22:41:52.608Z,2.70
2019-05-07T22:46:57.779Z,2.20
2019-05-07T22:52:02.330Z,1.70
2019-05-07T22:57:13.979Z,2.20
2019-05-07T23:02:16.286Z,1.50
2019-05-07T23:07:18.803Z,2.47
2019-05-07T23:12:22.144Z,2.23
2019-05-07T23:17:25.834Z,2.27
2019-05-07T23:22:29.379Z,1.50
2019-05-07T23:27:32.691Z,1.80
2019-05-07T23:32:36.405Z,1.77
2019-05-07T23:37:39.402Z,1.70
2019-05-07T23:42:43.504Z,2.27
2019-05-07T23:47:46.042Z,2.00
2019-05-07T23:52:48.918Z,2.10
2019-05-07T23:57:52.490Z,2.17
